Mansfield, South Dakota
Current Conditions -  °F | °C
As of 6:01 AM on Sunday 21 Dec 2014 (Local Time) from KABR Reporting Station
Haze Haze  
Wind Chill: 21°   Ceiling: 200
Heat Index: 30°   Visibility: 1.5mi
Dew Point: 29°   Wind: 12mph
Humidity: 96%   Direction: 170°S
Pressure: 29.75"   Gusts: NA
Location:  45.24°N, 98.57°W
Report Text: KABR 211201Z AUTO 17010KT 1 1/2SM BR OVC002 M01/M02 A2975 RMK AO2 T10111017
Loading
Personal Weather Stations






























Interactive Weather Map New forecast layout! Learn more

10-Day Weather Forecast

Advertisements
Track Severe Weather on mobile